PWSweather.com
Personal Weather Stations
Station Observations
SBERGENWX
Wood Ridge, NJ 07075

Wood Ridge, NJ 07075

Lat: 40.851667, Lon: -74.088131

Elevation: 177

Station Type: Davis Vantage Vue

http://201weather.com/

Latest ConditionsUpdated 3:45:01 PM EST Sunday, Jan 19, 2020
Currently Today's Max Today's Min Today's Average
Temperature 39.9°F4.4°C 43.0°F6.1°C 35.0°F1.7°C 38.6°F3.7°C
Dew Point 22.2°F-5.4°C 33.6°F0.9°C 21.3°F-5.9°C 30.7°F-0.7°C
Winds 4.6 mph E7.4 kmh E 10.4 mph -16.7 kmh - - 4.2 mph 6.8 kmh
Wind Gusts 4.6 mph7.4 kmh 19.6 mph31.5 kmh - -
Humidity 49% 93% 45% 75%
Pressure 29.79 in1008.8 mb 29.79 in1008.8 mb 29.67 in1004.7 mb -
Precipitation - 0.17 in4.3 mm - -
Hour Temp Dew Point Humidity Winds Wind Gusts Pressure Precip Precip Rate Daily Precip Total
03:45 PM 39.9°F4.4°C 22.2°F-5.4°C 49% 4.6 mph E7.4 kmh E 4.6 mph7.4 kmh 29.79 in1008.8 mb - 0.00 in0.0 mm 0.17 in4.3 mm
03:30 PM 40.0°F4.4°C 21.3°F-5.9°C 47% 4.6 mph E7.4 kmh E 4.6 mph7.4 kmh 29.78 in1008.5 mb - 0.00 in0.0 mm 0.17 in4.3 mm
03:15 PM 40.2°F4.6°C 23.0°F-5.0°C 50% 2.3 mph E3.7 kmh E 5.8 mph9.3 kmh 29.77 in1008.1 mb - 0.00 in0.0 mm 0.17 in4.3 mm
03:00 PM 40.7°F4.8°C 23.0°F-5.0°C 49% 3.5 mph E5.6 kmh E 11.5 mph18.5 kmh 29.76 in1007.8 mb - 0.00 in0.0 mm 0.17 in4.3 mm
02:45 PM 41.6°F5.3°C 23.3°F-4.8°C 48% 2.3 mph E3.7 kmh E 8.1 mph13.0 kmh 29.76 in1007.8 mb - 0.00 in0.0 mm 0.17 in4.3 mm
02:30 PM 43.0°F6.1°C 23.1°F-4.9°C 45% 8.1 mph E13.0 kmh E 15.0 mph24.1 kmh 29.74 in1007.1 mb - 0.00 in0.0 mm 0.17 in4.3 mm
02:15 PM 43.0°F6.1°C 23.1°F-4.9°C 45% 6.9 mph E11.1 kmh E 12.7 mph20.4 kmh 29.73 in1006.8 mb - 0.00 in0.0 mm 0.17 in4.3 mm
02:00 PM 41.6°F5.3°C 22.9°F-5.1°C 47% 6.9 mph E11.1 kmh E 15.0 mph24.1 kmh 29.73 in1006.8 mb - 0.00 in0.0 mm 0.17 in4.3 mm
01:45 PM 41.3°F5.2°C 26.8°F-2.9°C 56% 5.8 mph E9.3 kmh E 10.4 mph16.7 kmh 29.74 in1007.1 mb - 0.00 in0.0 mm 0.17 in4.3 mm
01:30 PM 41.8°F5.4°C 26.8°F-2.9°C 55% 8.1 mph E13.0 kmh E 11.5 mph18.5 kmh 29.74 in1007.1 mb - 0.00 in0.0 mm 0.17 in4.3 mm
01:15 PM 42.6°F5.9°C 28.0°F-2.2°C 56% 4.6 mph E7.4 kmh E 4.6 mph7.4 kmh 29.74 in1007.1 mb - 0.00 in0.0 mm 0.17 in4.3 mm
01:00 PM 42.5°F5.8°C 28.3°F-2.1°C 57% 4.6 mph E7.4 kmh E 11.5 mph18.5 kmh 29.74 in1007.1 mb - 0.00 in0.0 mm 0.17 in4.3 mm
12:45 PM 42.4°F5.8°C 28.6°F-1.9°C 58% 4.6 mph E7.4 kmh E 10.4 mph16.7 kmh 29.73 in1006.8 mb - 0.00 in0.0 mm 0.17 in4.3 mm
12:30 PM 41.9°F5.5°C 28.6°F-1.9°C 59% 9.2 mph E14.8 kmh E 11.5 mph18.5 kmh 29.73 in1006.8 mb - 0.00 in0.0 mm 0.17 in4.3 mm
12:15 PM 41.9°F5.5°C 28.6°F-1.9°C 59% 5.8 mph E9.3 kmh E 11.5 mph18.5 kmh 29.74 in1007.1 mb - 0.00 in0.0 mm 0.17 in4.3 mm
12:00 PM 42.5°F5.8°C 30.0°F-1.1°C 61% 2.3 mph E3.7 kmh E 2.3 mph3.7 kmh 29.74 in1007.1 mb - 0.00 in0.0 mm 0.17 in4.3 mm
11:45 AM 42.2°F5.7°C 31.2°F-0.4°C 65% 4.6 mph E7.4 kmh E 17.3 mph27.8 kmh 29.74 in1007.1 mb - 0.00 in0.0 mm 0.17 in4.3 mm
11:30 AM 41.4°F5.2°C 30.2°F-1.0°C 64% 9.2 mph E14.8 kmh E 19.6 mph31.5 kmh 29.75 in1007.5 mb - 0.00 in0.0 mm 0.17 in4.3 mm
11:15 AM 41.7°F5.4°C 31.2°F-0.4°C 66% 8.1 mph E13.0 kmh E 16.1 mph25.9 kmh 29.75 in1007.5 mb - 0.00 in0.0 mm 0.17 in4.3 mm
11:00 AM 42.3°F5.7°C 31.3°F-0.4°C 65% 10.4 mph E16.7 kmh E 16.1 mph25.9 kmh 29.75 in1007.5 mb - 0.01 in0.3 mm 0.17 in4.3 mm
10:45 AM 41.7°F5.4°C 31.9°F-0.1°C 68% 8.1 mph E13.0 kmh E 12.7 mph20.4 kmh 29.75 in1007.5 mb - 0.01 in0.3 mm 0.17 in4.3 mm
10:30 AM 41.5°F5.3°C 32.1°F0.1°C 69% 6.9 mph E11.1 kmh E 9.2 mph14.8 kmh 29.75 in1007.5 mb - 0.02 in0.5 mm 0.17 in4.3 mm
10:15 AM 40.9°F4.9°C 31.9°F-0.1°C 70% 4.6 mph E7.4 kmh E 12.7 mph20.4 kmh 29.74 in1007.1 mb - 0.02 in0.5 mm 0.17 in4.3 mm
10:00 AM 41.2°F5.1°C 31.8°F-0.1°C 69% 8.1 mph E13.0 kmh E 15.0 mph24.1 kmh 29.73 in1006.8 mb - 0.01 in0.3 mm 0.16 in4.1 mm
09:45 AM 41.1°F5.1°C 31.7°F-0.2°C 69% 5.8 mph E9.3 kmh E 15.0 mph24.1 kmh 29.72 in1006.4 mb - 0.02 in0.5 mm 0.16 in4.1 mm
09:30 AM 41.0°F5.0°C 31.6°F-0.2°C 69% 8.1 mph E13.0 kmh E 11.5 mph18.5 kmh 29.71 in1006.1 mb - 0.01 in0.3 mm 0.15 in3.8 mm
09:15 AM 40.9°F4.9°C 31.5°F-0.3°C 69% 4.6 mph E7.4 kmh E 4.6 mph7.4 kmh 29.71 in1006.1 mb - 0.02 in0.5 mm 0.15 in3.8 mm
09:00 AM 40.9°F4.9°C 31.9°F-0.1°C 70% 3.5 mph E5.6 kmh E 9.2 mph14.8 kmh 29.71 in1006.1 mb - 0.02 in0.5 mm 0.15 in3.8 mm
08:45 AM 40.4°F4.7°C 31.7°F-0.2°C 71% 5.8 mph E9.3 kmh E 3.5 mph5.6 kmh 29.71 in1006.1 mb - 0.01 in0.3 mm 0.14 in3.6 mm
08:30 AM 39.1°F3.9°C 31.8°F-0.1°C 75% 2.3 mph E3.7 kmh E 4.6 mph7.4 kmh 29.71 in1006.1 mb - 0.02 in0.5 mm 0.14 in3.6 mm
08:15 AM 39.0°F3.9°C 31.8°F-0.1°C 75% Calm Calm 3.5 mph5.6 kmh 29.71 in1006.1 mb - 0.01 in0.3 mm 0.13 in3.3 mm
08:00 AM 38.2°F3.4°C 31.6°F-0.2°C 77% 4.6 mph E7.4 kmh E 9.2 mph14.8 kmh 29.72 in1006.4 mb - 0.01 in0.3 mm 0.13 in3.3 mm
07:45 AM 37.7°F3.2°C 31.8°F-0.1°C 79% 4.6 mph E7.4 kmh E 8.1 mph13.0 kmh 29.72 in1006.4 mb - 0.02 in0.5 mm 0.13 in3.3 mm
07:30 AM 37.5°F3.1°C 31.9°F-0.1°C 80% 3.5 mph E5.6 kmh E 5.8 mph9.3 kmh 29.71 in1006.1 mb - 0.01 in0.3 mm 0.12 in3.0 mm
07:15 AM 37.8°F3.2°C 31.9°F-0.1°C 79% 4.6 mph E7.4 kmh E 5.8 mph9.3 kmh 29.71 in1006.1 mb - 0.01 in0.3 mm 0.12 in3.0 mm
07:00 AM 38.1°F3.4°C 31.9°F-0.1°C 78% 3.5 mph E5.6 kmh E 10.4 mph16.7 kmh 29.70 in1005.8 mb - 0.01 in0.3 mm 0.12 in3.0 mm
06:45 AM 38.1°F3.4°C 31.8°F-0.1°C 78% 5.8 mph E9.3 kmh E 11.5 mph18.5 kmh 29.70 in1005.8 mb - 0.00 in0.0 mm 0.11 in2.8 mm
06:30 AM 38.3°F3.5°C 31.7°F-0.2°C 77% 5.8 mph E9.3 kmh E 5.8 mph9.3 kmh 29.70 in1005.8 mb - 0.00 in0.0 mm 0.11 in2.8 mm
06:15 AM 37.5°F3.1°C 31.9°F-0.1°C 80% 3.5 mph E5.6 kmh E 6.9 mph11.1 kmh 29.70 in1005.8 mb - 0.01 in0.3 mm 0.11 in2.8 mm
06:00 AM 36.9°F2.7°C 32.3°F0.2°C 83% 5.8 mph E9.3 kmh E 10.4 mph16.7 kmh 29.69 in1005.4 mb - 0.01 in0.3 mm 0.11 in2.8 mm
05:45 AM 35.6°F2.0°C 33.0°F0.6°C 90% 3.5 mph E5.6 kmh E 6.9 mph11.1 kmh 29.68 in1005.1 mb - 0.01 in0.3 mm 0.11 in2.8 mm
05:30 AM 35.7°F2.1°C 33.1°F0.6°C 90% Calm Calm 1.2 mph1.9 kmh 29.68 in1005.1 mb - 0.02 in0.5 mm 0.11 in2.8 mm
05:15 AM 35.7°F2.1°C 33.3°F0.7°C 91% 2.3 mph E3.7 kmh E 3.5 mph5.6 kmh 29.68 in1005.1 mb - 0.01 in0.3 mm 0.10 in2.5 mm
05:00 AM 35.9°F2.2°C 33.5°F0.8°C 91% 1.2 mph E1.9 kmh E 3.5 mph5.6 kmh 29.68 in1005.1 mb - 0.01 in0.3 mm 0.10 in2.5 mm
04:45 AM 35.8°F2.1°C 33.4°F0.8°C 91% 1.2 mph E1.9 kmh E 3.5 mph5.6 kmh 29.67 in1004.7 mb - 0.02 in0.5 mm 0.10 in2.5 mm
04:30 AM 35.7°F2.1°C 33.6°F0.9°C 92% 1.2 mph E1.9 kmh E 2.3 mph3.7 kmh 29.68 in1005.1 mb - 0.01 in0.3 mm 0.09 in2.3 mm
04:15 AM 35.6°F2.0°C 33.5°F0.8°C 92% 2.3 mph E3.7 kmh E 3.5 mph5.6 kmh 29.68 in1005.1 mb - 0.02 in0.5 mm 0.09 in2.3 mm
04:00 AM 35.6°F2.0°C 33.5°F0.8°C 92% 2.3 mph E3.7 kmh E 4.6 mph7.4 kmh 29.69 in1005.4 mb - 0.02 in0.5 mm 0.09 in2.3 mm
03:45 AM 35.5°F1.9°C 33.4°F0.8°C 92% 1.2 mph E1.9 kmh E 3.5 mph5.6 kmh 29.68 in1005.1 mb - 0.02 in0.5 mm 0.08 in2.0 mm
03:30 AM 35.4°F1.9°C 33.3°F0.7°C 92% 2.3 mph E3.7 kmh E 5.8 mph9.3 kmh 29.69 in1005.4 mb - 0.03 in0.8 mm 0.08 in2.0 mm
03:15 AM 35.3°F1.8°C 33.2°F0.7°C 92% 2.3 mph E3.7 kmh E 4.6 mph7.4 kmh 29.69 in1005.4 mb - 0.02 in0.5 mm 0.07 in1.8 mm
03:00 AM 35.3°F1.8°C 33.2°F0.7°C 92% 2.3 mph E3.7 kmh E 3.5 mph5.6 kmh 29.69 in1005.4 mb - 0.03 in0.8 mm 0.07 in1.8 mm
02:45 AM 35.2°F1.8°C 33.4°F0.8°C 93% 1.2 mph E1.9 kmh E 3.5 mph5.6 kmh 29.70 in1005.8 mb - 0.03 in0.8 mm 0.06 in1.5 mm
02:30 AM 35.2°F1.8°C 33.4°F0.8°C 93% 1.2 mph E1.9 kmh E 2.3 mph3.7 kmh 29.70 in1005.8 mb - 0.02 in0.5 mm 0.05 in1.3 mm
02:15 AM 35.2°F1.8°C 33.4°F0.8°C 93% 2.3 mph E3.7 kmh E 4.6 mph7.4 kmh 29.71 in1006.1 mb - 0.03 in0.8 mm 0.05 in1.3 mm
02:00 AM 35.2°F1.8°C 33.4°F0.8°C 93% 2.3 mph E3.7 kmh E 5.8 mph9.3 kmh 29.71 in1006.1 mb - 0.03 in0.8 mm 0.04 in1.0 mm
01:45 AM 35.2°F1.8°C 33.4°F0.8°C 93% 2.3 mph E3.7 kmh E 3.5 mph5.6 kmh 29.70 in1005.8 mb - 0.03 in0.8 mm 0.04 in1.0 mm
01:30 AM 35.2°F1.8°C 33.4°F0.8°C 93% 4.6 mph E7.4 kmh E 8.1 mph13.0 kmh 29.71 in1006.1 mb - 0.02 in0.5 mm 0.03 in0.8 mm
01:15 AM 35.1°F1.7°C 33.3°F0.7°C 93% 2.3 mph E3.7 kmh E 2.3 mph3.7 kmh 29.71 in1006.1 mb - 0.01 in0.3 mm 0.02 in0.5 mm
01:00 AM 35.0°F1.7°C 32.9°F0.5°C 92% 2.3 mph E3.7 kmh E 4.6 mph7.4 kmh 29.71 in1006.1 mb - 0.01 in0.3 mm 0.01 in0.3 mm
12:45 AM 35.0°F1.7°C 32.9°F0.5°C 92% 3.5 mph E5.6 kmh E 3.5 mph5.6 kmh 29.71 in1006.1 mb - 0.01 in0.3 mm 0.01 in0.3 mm
12:30 AM 35.0°F1.7°C 32.9°F0.5°C 92% 2.3 mph E3.7 kmh E 3.5 mph5.6 kmh 29.73 in1006.8 mb - 0.02 in0.5 mm 0.01 in0.3 mm
12:15 AM 35.0°F1.7°C 32.9°F0.5°C 92% 2.3 mph E3.7 kmh E 3.5 mph5.6 kmh 29.74 in1007.1 mb - 0.03 in0.8 mm 0.01 in0.3 mm
12:00 AM 35.0°F1.7°C 32.7°F0.4°C 91% 2.3 mph E3.7 kmh E 4.6 mph7.4 kmh 29.75 in1007.5 mb - 0.03 in0.8 mm 0.03 in0.8 mm